UAL2011 KOMA-KORD
Flight info
| Callsign | UAL2011 |
|---|---|
| Flight time | 1h 3m |
| Altitude | 39000 |
| Route | FOD MYRRS FYTTE7 |
| Aircraft | A319/M-SDE3FGHIRWY/LB1 |
Departure
| Time | 2026-05-06 22:46 |
|---|---|
| Airport | Eppley Airfield (KOMA) |
Arrival
| Time | 2026-05-06 23:49 |
|---|---|
| Airport | Chicago O'Hare International Airport (KORD) |
| Time | Latitude | Longitude | Altitude | Speed | Heading |
|---|---|---|---|---|---|
| 2026-05-06 22:26 | 41.30176 | -95.89905 | 985 ft | 0 kts | 162° |
| 2026-05-06 22:39 | 41.30182 | -95.89907 | 989 ft | 4 kts | 162° |
| 2026-05-06 22:39 | 41.30203 | -95.89916 | 989 ft | 2 kts | 162° |
| 2026-05-06 22:39 | 41.30224 | -95.89933 | 989 ft | 4 kts | 132° |
| 2026-05-06 22:39 | 41.30239 | -95.89955 | 991 ft | 3 kts | 133° |
| 2026-05-06 22:40 | 41.30242 | -95.89959 | 991 ft | 0 kts | 133° |
| 2026-05-06 22:42 | 41.30242 | -95.89958 | 991 ft | 0 kts | 126° |
| 2026-05-06 22:42 | 41.30246 | -95.89952 | 988 ft | 2 kts | 59° |
| 2026-05-06 22:42 | 41.30282 | -95.89886 | 986 ft | 15 kts | 54° |
| 2026-05-06 22:43 | 41.30292 | -95.89752 | 987 ft | 18 kts | 141° |
| 2026-05-06 22:43 | 41.30185 | -95.89651 | 993 ft | 20 kts | 144° |
| 2026-05-06 22:43 | 41.30046 | -95.89606 | 984 ft | 23 kts | 180° |
| 2026-05-06 22:43 | 41.29882 | -95.89607 | 989 ft | 25 kts | 180° |
| 2026-05-06 22:44 | 41.29701 | -95.89608 | 985 ft | 27 kts | 180° |
| 2026-05-06 22:44 | 41.29504 | -95.89609 | 985 ft | 29 kts | 180° |
| 2026-05-06 22:44 | 41.29289 | -95.89610 | 989 ft | 32 kts | 180° |
| 2026-05-06 22:44 | 41.29109 | -95.89571 | 990 ft | 19 kts | 108° |
| 2026-05-06 22:45 | 41.29170 | -95.89463 | 988 ft | 16 kts | 359° |
| 2026-05-06 22:45 | 41.29342 | -95.89463 | 988 ft | 50 kts | 0° |
| 2026-05-06 22:45 | 41.29945 | -95.89460 | 983 ft | 123 kts | 0° |
| 2026-05-06 22:45 | 41.30976 | -95.89449 | 1258 ft | 157 kts | 357° |
| 2026-05-06 22:46 | 41.32054 | -95.89445 | 2298 ft | 153 kts | 357° |
| 2026-05-06 22:46 | 41.33136 | -95.89448 | 2992 ft | 165 kts | 355° |
| 2026-05-06 22:46 | 41.34382 | -95.89419 | 3391 ft | 195 kts | 5° |
| 2026-05-06 22:46 | 41.35681 | -95.88535 | 3931 ft | 229 kts | 36° |
| 2026-05-06 22:47 | 41.36942 | -95.87042 | 4595 ft | 254 kts | 38° |
| 2026-05-06 22:47 | 41.38270 | -95.85415 | 5629 ft | 264 kts | 39° |
| 2026-05-06 22:47 | 41.39616 | -95.83717 | 6745 ft | 268 kts | 39° |
| 2026-05-06 22:47 | 41.40987 | -95.81992 | 7790 ft | 274 kts | 39° |
| 2026-05-06 22:48 | 41.42392 | -95.80231 | 8820 ft | 281 kts | 39° |
| 2026-05-06 22:48 | 41.43817 | -95.78452 | 9786 ft | 288 kts | 39° |
| 2026-05-06 22:48 | 41.45313 | -95.76600 | 10485 ft | 304 kts | 39° |
| 2026-05-06 22:48 | 41.46931 | -95.74607 | 10860 ft | 328 kts | 39° |
| 2026-05-06 22:49 | 41.48655 | -95.72481 | 11378 ft | 344 kts | 39° |
| 2026-05-06 22:49 | 41.50434 | -95.70277 | 12122 ft | 353 kts | 39° |
| 2026-05-06 22:49 | 41.52245 | -95.68023 | 12870 ft | 360 kts | 38° |
| 2026-05-06 22:49 | 41.54093 | -95.65714 | 13576 ft | 367 kts | 38° |
| 2026-05-06 22:50 | 41.55976 | -95.63360 | 14237 ft | 374 kts | 38° |
| 2026-05-06 22:50 | 41.57889 | -95.60978 | 14884 ft | 379 kts | 38° |
| 2026-05-06 22:50 | 41.59830 | -95.58566 | 15543 ft | 383 kts | 38° |
| 2026-05-06 22:50 | 41.61792 | -95.56126 | 16206 ft | 388 kts | 38° |
| 2026-05-06 22:51 | 41.63779 | -95.53653 | 16900 ft | 392 kts | 38° |
| 2026-05-06 22:51 | 41.65787 | -95.51149 | 17587 ft | 397 kts | 38° |
| 2026-05-06 22:51 | 41.67819 | -95.48613 | 18283 ft | 402 kts | 38° |
| 2026-05-06 22:51 | 41.69846 | -95.46080 | 18873 ft | 406 kts | 38° |
| 2026-05-06 22:52 | 41.71951 | -95.43447 | 19460 ft | 412 kts | 38° |
| 2026-05-06 22:52 | 41.74030 | -95.40841 | 20032 ft | 417 kts | 38° |
| 2026-05-06 22:52 | 41.76162 | -95.38166 | 20587 ft | 423 kts | 38° |
| 2026-05-06 22:52 | 41.78323 | -95.35449 | 21149 ft | 429 kts | 38° |
| 2026-05-06 22:53 | 41.80512 | -95.32693 | 21698 ft | 434 kts | 39° |
| 2026-05-06 22:53 | 41.82723 | -95.29907 | 22245 ft | 439 kts | 39° |
| 2026-05-06 22:53 | 41.84964 | -95.27087 | 22768 ft | 445 kts | 39° |
| 2026-05-06 22:53 | 41.87232 | -95.24232 | 23280 ft | 450 kts | 39° |
| 2026-05-06 22:54 | 41.89522 | -95.21344 | 23780 ft | 454 kts | 39° |
| 2026-05-06 22:54 | 41.91835 | -95.18425 | 24222 ft | 458 kts | 39° |
| 2026-05-06 22:54 | 41.94167 | -95.15479 | 24660 ft | 462 kts | 39° |
| 2026-05-06 22:54 | 41.96514 | -95.12508 | 25114 ft | 466 kts | 38° |
| 2026-05-06 22:55 | 41.98881 | -95.09511 | 25557 ft | 469 kts | 38° |
| 2026-05-06 22:55 | 42.01268 | -95.06487 | 25993 ft | 472 kts | 38° |
| 2026-05-06 22:55 | 42.03669 | -95.03445 | 26413 ft | 476 kts | 38° |
| 2026-05-06 22:55 | 42.06089 | -95.00375 | 26836 ft | 479 kts | 38° |
| 2026-05-06 22:56 | 42.08526 | -94.97279 | 27264 ft | 483 kts | 38° |
| 2026-05-06 22:56 | 42.10968 | -94.94167 | 27686 ft | 486 kts | 38° |
| 2026-05-06 22:56 | 42.13402 | -94.91055 | 28092 ft | 490 kts | 38° |
| 2026-05-06 22:56 | 42.15882 | -94.87879 | 28510 ft | 493 kts | 38° |
| 2026-05-06 22:57 | 42.18379 | -94.84685 | 28919 ft | 497 kts | 38° |
| 2026-05-06 22:57 | 42.20893 | -94.81468 | 29312 ft | 500 kts | 38° |
| 2026-05-06 22:57 | 42.23431 | -94.78222 | 29700 ft | 503 kts | 38° |
| 2026-05-06 22:57 | 42.25980 | -94.74957 | 30077 ft | 507 kts | 38° |
| 2026-05-06 22:58 | 42.28543 | -94.71665 | 30393 ft | 511 kts | 38° |
| 2026-05-06 22:58 | 42.31130 | -94.68343 | 30647 ft | 515 kts | 38° |
| 2026-05-06 22:58 | 42.33735 | -94.64988 | 30892 ft | 520 kts | 38° |
| 2026-05-06 22:58 | 42.36371 | -94.61591 | 31129 ft | 525 kts | 38° |
| 2026-05-06 22:59 | 42.39030 | -94.58161 | 31406 ft | 528 kts | 38° |
| 2026-05-06 22:59 | 42.41692 | -94.54722 | 31723 ft | 530 kts | 37° |
| 2026-05-06 22:59 | 42.44364 | -94.51265 | 32027 ft | 534 kts | 37° |
| 2026-05-06 22:59 | 42.47054 | -94.47781 | 32333 ft | 536 kts | 37° |
| 2026-05-06 23:00 | 42.49756 | -94.44275 | 32647 ft | 539 kts | 36° |
| 2026-05-06 23:00 | 42.52438 | -94.40793 | 32959 ft | 542 kts | 36° |
| 2026-05-06 23:00 | 42.55141 | -94.37221 | 33270 ft | 548 kts | 39° |
| 2026-05-06 23:00 | 42.57514 | -94.33084 | 33587 ft | 562 kts | 53° |
| 2026-05-06 23:01 | 42.59294 | -94.28323 | 33891 ft | 572 kts | 67° |
| 2026-05-06 23:01 | 42.60398 | -94.23118 | 34171 ft | 576 kts | 81° |
| 2026-05-06 23:01 | 42.60752 | -94.17706 | 34461 ft | 574 kts | 94° |
| 2026-05-06 23:01 | 42.60614 | -94.12297 | 34816 ft | 573 kts | 96° |
| 2026-05-06 23:02 | 42.60451 | -94.06888 | 35202 ft | 572 kts | 96° |
| 2026-05-06 23:02 | 42.60280 | -94.01505 | 35586 ft | 571 kts | 96° |
| 2026-05-06 23:02 | 42.60104 | -93.96113 | 36019 ft | 569 kts | 95° |
| 2026-05-06 23:02 | 42.59928 | -93.90754 | 36340 ft | 569 kts | 95° |
| 2026-05-06 23:03 | 42.59749 | -93.85380 | 36695 ft | 569 kts | 95° |
| 2026-05-06 23:03 | 42.59569 | -93.80019 | 37069 ft | 568 kts | 95° |
| 2026-05-06 23:03 | 42.59388 | -93.74674 | 37450 ft | 566 kts | 95° |
| 2026-05-06 23:03 | 42.59210 | -93.69410 | 37833 ft | 565 kts | 95° |
| 2026-05-06 23:04 | 42.59025 | -93.64022 | 38205 ft | 564 kts | 95° |
| 2026-05-06 23:04 | 42.58842 | -93.58782 | 38561 ft | 562 kts | 94° |
| 2026-05-06 23:04 | 42.58654 | -93.53491 | 38881 ft | 561 kts | 94° |
| 2026-05-06 23:04 | 42.58460 | -93.48208 | 39043 ft | 560 kts | 94° |
| 2026-05-06 23:05 | 42.58263 | -93.42935 | 39089 ft | 559 kts | 95° |
| 2026-05-06 23:05 | 42.57865 | -93.32387 | 39089 ft | 558 kts | 94° |
| 2026-05-06 23:06 | 42.57469 | -93.21873 | 39093 ft | 558 kts | 94° |
| 2026-05-06 23:06 | 42.57058 | -93.11347 | 39090 ft | 558 kts | 95° |
| 2026-05-06 23:07 | 42.56636 | -93.00834 | 39092 ft | 558 kts | 95° |
| 2026-05-06 23:07 | 42.56207 | -92.90379 | 39099 ft | 558 kts | 95° |
| 2026-05-06 23:08 | 42.55765 | -92.79870 | 39095 ft | 558 kts | 95° |
| 2026-05-06 23:08 | 42.55316 | -92.69345 | 39098 ft | 558 kts | 95° |
| 2026-05-06 23:09 | 42.54854 | -92.58811 | 39091 ft | 558 kts | 95° |
| 2026-05-06 23:09 | 42.54378 | -92.48295 | 39087 ft | 558 kts | 95° |
| 2026-05-06 23:10 | 42.53903 | -92.37847 | 39076 ft | 557 kts | 95° |
| 2026-05-06 23:10 | 42.53414 | -92.27322 | 39081 ft | 558 kts | 95° |
| 2026-05-06 23:11 | 42.52922 | -92.16839 | 39080 ft | 558 kts | 95° |
| 2026-05-06 23:11 | 42.52416 | -92.06339 | 39102 ft | 558 kts | 95° |
| 2026-05-06 23:12 | 42.52230 | -91.95821 | 39111 ft | 558 kts | 90° |
| 2026-05-06 23:12 | 42.52436 | -91.85294 | 39117 ft | 558 kts | 88° |
| 2026-05-06 23:13 | 42.52643 | -91.74845 | 39115 ft | 558 kts | 89° |
| 2026-05-06 23:13 | 42.52707 | -91.64314 | 39111 ft | 558 kts | 90° |
| 2026-05-06 23:14 | 42.52694 | -91.53793 | 39114 ft | 558 kts | 91° |
| 2026-05-06 23:14 | 42.52688 | -91.43266 | 39113 ft | 558 kts | 90° |
| 2026-05-06 23:15 | 42.52713 | -91.32751 | 39104 ft | 558 kts | 90° |
| 2026-05-06 23:15 | 42.52734 | -91.22228 | 39107 ft | 558 kts | 90° |
| 2026-05-06 23:16 | 42.52736 | -91.11722 | 39097 ft | 558 kts | 90° |
| 2026-05-06 23:16 | 42.52715 | -91.01206 | 39009 ft | 557 kts | 91° |
| 2026-05-06 23:16 | 42.52693 | -90.95943 | 38780 ft | 557 kts | 91° |
| 2026-05-06 23:17 | 42.52672 | -90.90693 | 38513 ft | 558 kts | 91° |
| 2026-05-06 23:17 | 42.52655 | -90.85492 | 38248 ft | 559 kts | 91° |
| 2026-05-06 23:17 | 42.52637 | -90.80214 | 37976 ft | 560 kts | 91° |
| 2026-05-06 23:17 | 42.52614 | -90.74939 | 37711 ft | 561 kts | 91° |
| 2026-05-06 23:18 | 42.52586 | -90.69652 | 37220 ft | 560 kts | 91° |
| 2026-05-06 23:18 | 42.52554 | -90.64355 | 36496 ft | 564 kts | 91° |
| 2026-05-06 23:18 | 42.52517 | -90.59017 | 35697 ft | 569 kts | 92° |
| 2026-05-06 23:18 | 42.52473 | -90.53631 | 34836 ft | 574 kts | 92° |
| 2026-05-06 23:19 | 42.52427 | -90.48189 | 34001 ft | 579 kts | 92° |
| 2026-05-06 23:19 | 42.52382 | -90.42724 | 33226 ft | 578 kts | 92° |
| 2026-05-06 23:19 | 42.52338 | -90.37315 | 32569 ft | 570 kts | 92° |
| 2026-05-06 23:19 | 42.52294 | -90.31964 | 31461 ft | 564 kts | 92° |
| 2026-05-06 23:20 | 42.52253 | -90.26683 | 30381 ft | 557 kts | 92° |
| 2026-05-06 23:20 | 42.52220 | -90.21488 | 29531 ft | 547 kts | 92° |
| 2026-05-06 23:20 | 42.52191 | -90.16437 | 28948 ft | 538 kts | 92° |
| 2026-05-06 23:20 | 42.52161 | -90.11396 | 28303 ft | 531 kts | 92° |
| 2026-05-06 23:21 | 42.52128 | -90.06425 | 27678 ft | 523 kts | 92° |
| 2026-05-06 23:21 | 42.52089 | -90.01519 | 27059 ft | 517 kts | 92° |
| 2026-05-06 23:21 | 42.52043 | -89.96693 | 26517 ft | 515 kts | 92° |
| 2026-05-06 23:21 | 42.51994 | -89.91828 | 25796 ft | 512 kts | 92° |
| 2026-05-06 23:22 | 42.51945 | -89.87048 | 25219 ft | 504 kts | 92° |
| 2026-05-06 23:22 | 42.51897 | -89.82322 | 24626 ft | 498 kts | 92° |
| 2026-05-06 23:22 | 42.51780 | -89.77651 | 24047 ft | 491 kts | 97° |
| 2026-05-06 23:22 | 42.51289 | -89.73140 | 23673 ft | 478 kts | 102° |
| 2026-05-06 23:23 | 42.50742 | -89.68734 | 23290 ft | 470 kts | 102° |
| 2026-05-06 23:23 | 42.50389 | -89.65848 | 23068 ft | 467 kts | 102° |
| 2026-05-06 23:23 | 42.49860 | -89.61467 | 22715 ft | 464 kts | 102° |
| 2026-05-06 23:23 | 42.49347 | -89.57221 | 22377 ft | 461 kts | 102° |
| 2026-05-06 23:24 | 42.48827 | -89.52946 | 22032 ft | 458 kts | 102° |
| 2026-05-06 23:24 | 42.48306 | -89.48701 | 21698 ft | 455 kts | 102° |
| 2026-05-06 23:24 | 42.47781 | -89.44489 | 21371 ft | 452 kts | 102° |
| 2026-05-06 23:24 | 42.47259 | -89.40314 | 21040 ft | 444 kts | 102° |
| 2026-05-06 23:25 | 42.46750 | -89.36212 | 20512 ft | 438 kts | 102° |
| 2026-05-06 23:25 | 42.46252 | -89.32167 | 19797 ft | 431 kts | 101° |
| 2026-05-06 23:25 | 42.45768 | -89.28204 | 19067 ft | 425 kts | 101° |
| 2026-05-06 23:25 | 42.45288 | -89.24264 | 18611 ft | 419 kts | 101° |
| 2026-05-06 23:26 | 42.44813 | -89.20380 | 18041 ft | 416 kts | 101° |
| 2026-05-06 23:26 | 42.44338 | -89.16551 | 17518 ft | 410 kts | 101° |
| 2026-05-06 23:26 | 42.43864 | -89.12759 | 16937 ft | 406 kts | 101° |
| 2026-05-06 23:26 | 42.43394 | -89.09050 | 16358 ft | 403 kts | 101° |
| 2026-05-06 23:27 | 42.42917 | -89.05334 | 15859 ft | 397 kts | 101° |
| 2026-05-06 23:27 | 42.42451 | -89.01662 | 15299 ft | 394 kts | 101° |
| 2026-05-06 23:27 | 42.41997 | -88.98039 | 14748 ft | 391 kts | 101° |
| 2026-05-06 23:27 | 42.41543 | -88.94430 | 14342 ft | 384 kts | 100° |
| 2026-05-06 23:28 | 42.41100 | -88.90914 | 14072 ft | 373 kts | 100° |
| 2026-05-06 23:28 | 42.40670 | -88.87479 | 13701 ft | 367 kts | 100° |
| 2026-05-06 23:28 | 42.40239 | -88.84073 | 13137 ft | 366 kts | 100° |
| 2026-05-06 23:28 | 42.39812 | -88.80735 | 12706 ft | 361 kts | 100° |
| 2026-05-06 23:29 | 42.39383 | -88.77410 | 12184 ft | 356 kts | 100° |
| 2026-05-06 23:29 | 42.38957 | -88.74128 | 11537 ft | 352 kts | 100° |
| 2026-05-06 23:29 | 42.38540 | -88.70924 | 11126 ft | 336 kts | 100° |
| 2026-05-06 23:29 | 42.38146 | -88.67894 | 10885 ft | 321 kts | 99° |
| 2026-05-06 23:30 | 42.37768 | -88.64951 | 10380 ft | 315 kts | 99° |
| 2026-05-06 23:30 | 42.37392 | -88.62046 | 10000 ft | 312 kts | 99° |
| 2026-05-06 23:30 | 42.37077 | -88.59643 | 9738 ft | 309 kts | 99° |
| 2026-05-06 23:30 | 42.36700 | -88.56799 | 9367 ft | 307 kts | 100° |
| 2026-05-06 23:31 | 42.36325 | -88.53973 | 9000 ft | 305 kts | 99° |
| 2026-05-06 23:31 | 42.35956 | -88.51168 | 8638 ft | 302 kts | 99° |
| 2026-05-06 23:31 | 42.35586 | -88.48377 | 8292 ft | 300 kts | 99° |
| 2026-05-06 23:31 | 42.35220 | -88.45601 | 7949 ft | 298 kts | 99° |
| 2026-05-06 23:32 | 42.34863 | -88.42853 | 7626 ft | 296 kts | 99° |
| 2026-05-06 23:32 | 42.34338 | -88.40170 | 7301 ft | 295 kts | 111° |
| 2026-05-06 23:32 | 42.33450 | -88.37723 | 6983 ft | 292 kts | 123° |
| 2026-05-06 23:32 | 42.32281 | -88.35485 | 6650 ft | 291 kts | 127° |
| 2026-05-06 23:33 | 42.31097 | -88.33281 | 6324 ft | 289 kts | 127° |
| 2026-05-06 23:33 | 42.29917 | -88.31095 | 5964 ft | 288 kts | 128° |
| 2026-05-06 23:33 | 42.28671 | -88.28976 | 5618 ft | 286 kts | 131° |
| 2026-05-06 23:33 | 42.27389 | -88.26931 | 5276 ft | 285 kts | 132° |
| 2026-05-06 23:34 | 42.26091 | -88.24908 | 4956 ft | 284 kts | 132° |
| 2026-05-06 23:34 | 42.24798 | -88.22900 | 4616 ft | 283 kts | 132° |
| 2026-05-06 23:34 | 42.23514 | -88.20895 | 4269 ft | 281 kts | 132° |
| 2026-05-06 23:34 | 42.22242 | -88.18899 | 3904 ft | 280 kts | 132° |
| 2026-05-06 23:35 | 42.20967 | -88.16915 | 3526 ft | 279 kts | 134° |
| 2026-05-06 23:35 | 42.19514 | -88.15196 | 3194 ft | 276 kts | 147° |
| 2026-05-06 23:35 | 42.17866 | -88.13899 | 2872 ft | 272 kts | 159° |
| 2026-05-06 23:35 | 42.16116 | -88.12970 | 2537 ft | 270 kts | 163° |
| 2026-05-06 23:36 | 42.14386 | -88.12088 | 2320 ft | 269 kts | 163° |
| 2026-05-06 23:36 | 42.12639 | -88.11196 | 2311 ft | 268 kts | 162° |
| 2026-05-06 23:36 | 42.10950 | -88.10325 | 2315 ft | 252 kts | 162° |
| 2026-05-06 23:36 | 42.09361 | -88.09508 | 2314 ft | 237 kts | 163° |
| 2026-05-06 23:37 | 42.07847 | -88.08730 | 2321 ft | 231 kts | 163° |
| 2026-05-06 23:37 | 42.06345 | -88.07962 | 2318 ft | 230 kts | 163° |
| 2026-05-06 23:37 | 42.04855 | -88.07200 | 2320 ft | 229 kts | 163° |
| 2026-05-06 23:37 | 42.03361 | -88.06441 | 2314 ft | 230 kts | 163° |
| 2026-05-06 23:38 | 42.01870 | -88.05679 | 2310 ft | 229 kts | 163° |
| 2026-05-06 23:38 | 42.00381 | -88.04920 | 2309 ft | 229 kts | 163° |
| 2026-05-06 23:38 | 41.98890 | -88.04165 | 2311 ft | 229 kts | 163° |
| 2026-05-06 23:38 | 41.97398 | -88.03408 | 2313 ft | 228 kts | 163° |
| 2026-05-06 23:39 | 41.95967 | -88.02675 | 2303 ft | 212 kts | 163° |
| 2026-05-06 23:39 | 41.94626 | -88.01986 | 2311 ft | 203 kts | 163° |
| 2026-05-06 23:39 | 41.93316 | -88.01317 | 2305 ft | 201 kts | 163° |
| 2026-05-06 23:39 | 41.92026 | -88.00612 | 2312 ft | 201 kts | 157° |
| 2026-05-06 23:40 | 41.90855 | -87.99594 | 2312 ft | 204 kts | 143° |
| 2026-05-06 23:40 | 41.89857 | -87.98237 | 2308 ft | 205 kts | 129° |
| 2026-05-06 23:40 | 41.89105 | -87.96639 | 2307 ft | 206 kts | 116° |
| 2026-05-06 23:40 | 41.88624 | -87.94838 | 2309 ft | 206 kts | 102° |
| 2026-05-06 23:41 | 41.88445 | -87.92939 | 2312 ft | 204 kts | 88° |
| 2026-05-06 23:41 | 41.88450 | -87.91040 | 2311 ft | 204 kts | 88° |
| 2026-05-06 23:41 | 41.88448 | -87.89129 | 2304 ft | 204 kts | 88° |
| 2026-05-06 23:41 | 41.88443 | -87.87228 | 2309 ft | 204 kts | 88° |
| 2026-05-06 23:42 | 41.88438 | -87.85321 | 2314 ft | 204 kts | 88° |
| 2026-05-06 23:42 | 41.88527 | -87.83428 | 2309 ft | 203 kts | 76° |
| 2026-05-06 23:42 | 41.88856 | -87.81591 | 2309 ft | 202 kts | 71° |
| 2026-05-06 23:42 | 41.89223 | -87.79776 | 2318 ft | 202 kts | 71° |
| 2026-05-06 23:43 | 41.89600 | -87.77959 | 2317 ft | 202 kts | 70° |
| 2026-05-06 23:43 | 41.90097 | -87.76235 | 2318 ft | 200 kts | 62° |
| 2026-05-06 23:43 | 41.90725 | -87.74570 | 2320 ft | 199 kts | 56° |
| 2026-05-06 23:43 | 41.91478 | -87.73146 | 2323 ft | 171 kts | 34° |
| 2026-05-06 23:44 | 41.92438 | -87.72599 | 2317 ft | 138 kts | 3° |
| 2026-05-06 23:44 | 41.93308 | -87.72771 | 2308 ft | 121 kts | 336° |
| 2026-05-06 23:44 | 41.94108 | -87.73069 | 2309 ft | 118 kts | 336° |
| 2026-05-06 23:44 | 41.94878 | -87.73392 | 2310 ft | 114 kts | 332° |
| 2026-05-06 23:45 | 41.95604 | -87.73812 | 2313 ft | 113 kts | 324° |
| 2026-05-06 23:45 | 41.96243 | -87.74430 | 2309 ft | 113 kts | 309° |
| 2026-05-06 23:45 | 41.96571 | -87.75383 | 2319 ft | 116 kts | 279° |
| 2026-05-06 23:45 | 41.96578 | -87.76468 | 2313 ft | 116 kts | 273° |
| 2026-05-06 23:46 | 41.96580 | -87.77549 | 2289 ft | 115 kts | 272° |
| 2026-05-06 23:46 | 41.96581 | -87.78625 | 2210 ft | 115 kts | 272° |
| 2026-05-06 23:46 | 41.96582 | -87.79699 | 2085 ft | 115 kts | 272° |
| 2026-05-06 23:46 | 41.96582 | -87.80771 | 1942 ft | 115 kts | 272° |
| 2026-05-06 23:47 | 41.96582 | -87.81836 | 1798 ft | 114 kts | 272° |
| 2026-05-06 23:47 | 41.96581 | -87.82910 | 1638 ft | 115 kts | 272° |
| 2026-05-06 23:47 | 41.96583 | -87.83997 | 1464 ft | 116 kts | 271° |
| 2026-05-06 23:47 | 41.96583 | -87.85074 | 1303 ft | 115 kts | 271° |
| 2026-05-06 23:48 | 41.96583 | -87.86154 | 1138 ft | 116 kts | 271° |
| 2026-05-06 23:48 | 41.96582 | -87.87221 | 980 ft | 116 kts | 270° |
| 2026-05-06 23:48 | 41.96581 | -87.88301 | 827 ft | 116 kts | 271° |
| 2026-05-06 23:48 | 41.96577 | -87.89379 | 696 ft | 114 kts | 270° |
| 2026-05-06 23:49 | 41.96576 | -87.90313 | 669 ft | 81 kts | 269° |
| 2026-05-06 23:49 | 41.96575 | -87.90840 | 669 ft | 37 kts | 270° |
| 2026-05-06 23:49 | 41.96578 | -87.91203 | 669 ft | 40 kts | 277° |
| 2026-05-06 23:49 | 41.96656 | -87.91475 | 669 ft | 18 kts | 304° |
| 2026-05-06 23:50 | 41.96737 | -87.91404 | 669 ft | 20 kts | 88° |
| 2026-05-06 23:50 | 41.96806 | -87.91096 | 669 ft | 15 kts | 319° |
| 2026-05-06 23:50 | 41.96874 | -87.91177 | 670 ft | 15 kts | 317° |
| 2026-05-06 23:51 | 41.96962 | -87.91285 | 670 ft | 20 kts | 319° |
| 2026-05-06 23:51 | 41.97039 | -87.91215 | 669 ft | 20 kts | 91° |
| 2026-05-06 23:51 | 41.97093 | -87.91126 | 669 ft | 14 kts | 340° |
| 2026-05-06 23:51 | 41.97185 | -87.91205 | 668 ft | 18 kts | 348° |
| 2026-05-06 23:52 | 41.97302 | -87.91141 | 669 ft | 19 kts | 341° |
| 2026-05-06 23:52 | 41.97391 | -87.91137 | 669 ft | 17 kts | 42° |
| 2026-05-06 23:52 | 41.97499 | -87.91056 | 669 ft | 18 kts | 11° |
| 2026-05-06 23:52 | 41.97567 | -87.90897 | 668 ft | 17 kts | 43° |
| 2026-05-06 23:53 | 41.97704 | -87.90859 | 669 ft | 24 kts | 9° |
| 2026-05-06 23:53 | 41.97863 | -87.90822 | 669 ft | 18 kts | 12° |
| 2026-05-06 23:53 | 41.97881 | -87.90741 | 669 ft | 2 kts | 99° |
| 2026-05-06 23:53 | 41.97879 | -87.90732 | 669 ft | 0 kts | 99° |